sensor_id;sensor_type;location;lat;lon;timestamp;pressure;altitude;pressure_sealevel;temperature;humidity
40794;BME280;26502;51.886;15.604;2024-01-27T00:00:17;101408.41;;;4.87;71.41
40794;BME280;26502;51.886;15.604;2024-01-27T00:06:03;101421.93;;;4.79;72.09
40794;BME280;26502;51.886;15.604;2024-01-27T00:11:29;101415.39;;;4.72;72.33
40794;BME280;26502;51.886;15.604;2024-01-27T00:16:55;101425.92;;;4.68;72.37
40794;BME280;26502;51.886;15.604;2024-01-27T00:22:21;101416.24;;;4.61;72.46
40794;BME280;26502;51.886;15.604;2024-01-27T00:27:47;101424.13;;;4.54;72.41
40794;BME280;26502;51.886;15.604;2024-01-27T00:33:13;101423.73;;;4.46;72.66
40794;BME280;26502;51.886;15.604;2024-01-27T00:38:39;101425.67;;;4.45;72.56
40794;BME280;26502;51.886;15.604;2024-01-27T00:44:05;101430.79;;;4.49;72.36
40794;BME280;26502;51.886;15.604;2024-01-27T00:49:31;101430.27;;;4.53;72.21
40794;BME280;26502;51.886;15.604;2024-01-27T00:54:57;101429.23;;;4.52;72.00
40794;BME280;26502;51.886;15.604;2024-01-27T01:00:23;101427.27;;;4.49;71.83
40794;BME280;26502;51.886;15.604;2024-01-27T01:05:49;101423.05;;;4.49;71.35
40794;BME280;26502;51.886;15.604;2024-01-27T01:11:17;101429.36;;;4.43;71.27
40794;BME280;26502;51.886;15.604;2024-01-27T01:16:43;101441.13;;;4.40;71.16
40794;BME280;26502;51.886;15.604;2024-01-27T01:22:09;101452.02;;;4.38;70.84
40794;BME280;26502;51.886;15.604;2024-01-27T01:27:35;101453.58;;;4.35;70.82
40794;BME280;26502;51.886;15.604;2024-01-27T01:33:02;101448.95;;;4.25;71.13
40794;BME280;26502;51.886;15.604;2024-01-27T01:38:28;101455.09;;;4.22;70.98
40794;BME280;26502;51.886;15.604;2024-01-27T01:43:54;101461.39;;;4.19;70.90
40794;BME280;26502;51.886;15.604;2024-01-27T01:49:20;101465.91;;;4.11;70.91
40794;BME280;26502;51.886;15.604;2024-01-27T01:54:48;101477.32;;;4.08;71.03
40794;BME280;26502;51.886;15.604;2024-01-27T02:00:16;101476.42;;;4.06;70.87
40794;BME280;26502;51.886;15.604;2024-01-27T02:05:42;101489.79;;;4.04;70.96
40794;BME280;26502;51.886;15.604;2024-01-27T02:11:08;101491.70;;;4.05;70.79
40794;BME280;26502;51.886;15.604;2024-01-27T02:16:34;101495.59;;;4.05;70.69
40794;BME280;26502;51.886;15.604;2024-01-27T02:22:00;101497.48;;;4.02;70.83
40794;BME280;26502;51.886;15.604;2024-01-27T02:27:27;101498.89;;;4.00;70.90
40794;BME280;26502;51.886;15.604;2024-01-27T02:32:56;101501.52;;;4.01;70.81
40794;BME280;26502;51.886;15.604;2024-01-27T02:38:22;101509.24;;;3.98;70.88
40794;BME280;26502;51.886;15.604;2024-01-27T02:43:48;101511.85;;;3.97;70.80
40794;BME280;26502;51.886;15.604;2024-01-27T02:49:14;101522.07;;;3.99;70.60
40794;BME280;26502;51.886;15.604;2024-01-27T02:54:40;101527.02;;;4.02;70.41
40794;BME280;26502;51.886;15.604;2024-01-27T03:00:08;101544.08;;;4.03;70.26
40794;BME280;26502;51.886;15.604;2024-01-27T03:05:34;101544.29;;;4.07;69.75
40794;BME280;26502;51.886;15.604;2024-01-27T03:11:00;101547.44;;;4.06;69.73
40794;BME280;26502;51.886;15.604;2024-01-27T03:16:26;101561.16;;;4.08;69.29
40794;BME280;26502;51.886;15.604;2024-01-27T03:21:52;101570.66;;;4.07;69.25
40794;BME280;26502;51.886;15.604;2024-01-27T03:27:18;101570.13;;;4.07;69.04
40794;BME280;26502;51.886;15.604;2024-01-27T03:32:45;101564.66;;;4.04;68.82
40794;BME280;26502;51.886;15.604;2024-01-27T03:38:11;101556.92;;;4.04;68.39
40794;BME280;26502;51.886;15.604;2024-01-27T03:43:37;101557.60;;;4.01;68.19
40794;BME280;26502;51.886;15.604;2024-01-27T03:49:05;101564.77;;;3.97;68.21
40794;BME280;26502;51.886;15.604;2024-01-27T03:54:31;101571.08;;;3.96;68.10
40794;BME280;26502;51.886;15.604;2024-01-27T03:59:57;101574.55;;;3.89;68.24
40794;BME280;26502;51.886;15.604;2024-01-27T04:05:25;101575.02;;;3.85;68.29
40794;BME280;26502;51.886;15.604;2024-01-27T04:10:51;101583.62;;;3.84;68.36
40794;BME280;26502;51.886;15.604;2024-01-27T04:16:17;101588.14;;;3.79;68.36
40794;BME280;26502;51.886;15.604;2024-01-27T04:21:43;101588.80;;;3.74;68.44
40794;BME280;26502;51.886;15.604;2024-01-27T04:27:08;101584.20;;;3.72;68.57
40794;BME280;26502;51.886;15.604;2024-01-27T04:32:34;101595.29;;;3.74;68.48
40794;BME280;26502;51.886;15.604;2024-01-27T04:38:01;101600.02;;;3.71;68.54
40794;BME280;26502;51.886;15.604;2024-01-27T04:43:28;101597.91;;;3.71;68.56
40794;BME280;26502;51.886;15.604;2024-01-27T04:48:54;101608.30;;;3.73;68.50
40794;BME280;26502;51.886;15.604;2024-01-27T04:54:20;101616.23;;;3.75;68.52
40794;BME280;26502;51.886;15.604;2024-01-27T04:59:46;101620.92;;;3.72;68.69
40794;BME280;26502;51.886;15.604;2024-01-27T05:05:12;101627.59;;;3.70;68.69
40794;BME280;26502;51.886;15.604;2024-01-27T05:10:38;101642.71;;;3.72;68.75
40794;BME280;26502;51.886;15.604;2024-01-27T05:16:05;101660.09;;;3.71;68.97
40794;BME280;26502;51.886;15.604;2024-01-27T05:21:33;101665.59;;;3.76;68.97
40794;BME280;26502;51.886;15.604;2024-01-27T05:26:58;101675.70;;;3.84;69.04
40794;BME280;26502;51.886;15.604;2024-01-27T05:32:24;101663.07;;;3.85;69.10
40794;BME280;26502;51.886;15.604;2024-01-27T05:37:51;101652.20;;;3.88;69.02
40794;BME280;26502;51.886;15.604;2024-01-27T05:43:18;101646.59;;;3.88;68.90
40794;BME280;26502;51.886;15.604;2024-01-27T05:48:44;101647.10;;;3.88;68.80
40794;BME280;26502;51.886;15.604;2024-01-27T05:54:10;101655.33;;;3.85;68.73
40794;BME280;26502;51.886;15.604;2024-01-27T05:59:41;101687.14;;;3.71;69.10
40794;BME280;26502;51.886;15.604;2024-01-27T06:05:08;101691.85;;;3.67;69.30
40794;BME280;26502;51.886;15.604;2024-01-27T06:10:34;101708.02;;;3.68;69.51
40794;BME280;26502;51.886;15.604;2024-01-27T06:16:02;101706.48;;;3.71;69.54
40794;BME280;26502;51.886;15.604;2024-01-27T06:21:31;101698.98;;;3.75;69.55
40794;BME280;26502;51.886;15.604;2024-01-27T06:26:58;101700.26;;;3.80;69.59
40794;BME280;26502;51.886;15.604;2024-01-27T06:32:24;101705.02;;;3.82;69.62
40794;BME280;26502;51.886;15.604;2024-01-27T06:37:50;101710.98;;;3.81;69.76
40794;BME280;26502;51.886;15.604;2024-01-27T06:43:16;101714.23;;;3.87;69.76
40794;BME280;26502;51.886;15.604;2024-01-27T06:48:42;101721.86;;;3.95;69.53
40794;BME280;26502;51.886;15.604;2024-01-27T06:54:08;101737.35;;;3.96;69.74
40794;BME280;26502;51.886;15.604;2024-01-27T06:59:37;101737.38;;;3.98;69.80
40794;BME280;26502;51.886;15.604;2024-01-27T07:05:04;101752.14;;;3.98;69.85
40794;BME280;26502;51.886;15.604;2024-01-27T07:10:30;101742.81;;;3.97;69.82
40794;BME280;26502;51.886;15.604;2024-01-27T07:15:56;101733.17;;;4.00;69.87
40794;BME280;26502;51.886;15.604;2024-01-27T07:21:23;101748.83;;;4.01;69.88
40794;BME280;26502;51.886;15.604;2024-01-27T07:26:49;101752.38;;;4.02;69.94
40794;BME280;26502;51.886;15.604;2024-01-27T07:32:15;101758.68;;;4.00;69.98
40794;BME280;26502;51.886;15.604;2024-01-27T07:37:40;101772.77;;;4.04;69.99
40794;BME280;26502;51.886;15.604;2024-01-27T07:43:07;101774.39;;;4.07;69.96
40794;BME280;26502;51.886;15.604;2024-01-27T07:48:33;101783.89;;;4.07;70.08
40794;BME280;26502;51.886;15.604;2024-01-27T07:53:59;101789.40;;;4.12;70.10
40794;BME280;26502;51.886;15.604;2024-01-27T07:59:26;101790.52;;;4.17;70.11
40794;BME280;26502;51.886;15.604;2024-01-27T08:04:51;101811.48;;;4.22;70.08
40794;BME280;26502;51.886;15.604;2024-01-27T08:10:18;101803.98;;;4.26;70.01
40794;BME280;26502;51.886;15.604;2024-01-27T08:15:44;101809.84;;;4.32;70.10
40794;BME280;26502;51.886;15.604;2024-01-27T08:21:11;101814.84;;;4.37;69.92
40794;BME280;26502;51.886;15.604;2024-01-27T08:26:37;101833.90;;;4.43;69.92
40794;BME280;26502;51.886;15.604;2024-01-27T08:32:03;101832.02;;;4.48;69.97
40794;BME280;26502;51.886;15.604;2024-01-27T08:37:29;101842.95;;;4.50;69.74
40794;BME280;26502;51.886;15.604;2024-01-27T08:42:57;101839.96;;;4.51;69.74
40794;BME280;26502;51.886;15.604;2024-01-27T08:48:23;101856.77;;;4.59;69.97
40794;BME280;26502;51.886;15.604;2024-01-27T08:53:51;101863.40;;;4.71;69.91
40794;BME280;26502;51.886;15.604;2024-01-27T08:59:17;101871.28;;;4.83;69.96
40794;BME280;26502;51.886;15.604;2024-01-27T09:04:43;101874.81;;;4.85;69.82
40794;BME280;26502;51.886;15.604;2024-01-27T09:10:10;101875.22;;;4.89;69.71
40794;BME280;26502;51.886;15.604;2024-01-27T09:15:37;101879.20;;;5.01;69.68
40794;BME280;26502;51.886;15.604;2024-01-27T09:21:03;101884.38;;;5.08;69.51
40794;BME280;26502;51.886;15.604;2024-01-27T09:26:29;101891.40;;;5.25;69.43
40794;BME280;26502;51.886;15.604;2024-01-27T09:31:55;101892.34;;;5.32;69.26
40794;BME280;26502;51.886;15.604;2024-01-27T09:37:21;101896.60;;;5.35;68.87
40794;BME280;26502;51.886;15.604;2024-01-27T09:42:52;101906.90;;;5.44;68.70
40794;BME280;26502;51.886;15.604;2024-01-27T09:48:18;101904.34;;;5.54;68.80
40794;BME280;26502;51.886;15.604;2024-01-27T09:53:44;101913.50;;;5.54;68.00
40794;BME280;26502;51.886;15.604;2024-01-27T09:59:10;101916.48;;;5.53;68.31
40794;BME280;26502;51.886;15.604;2024-01-27T10:04:39;101930.30;;;5.60;68.32
40794;BME280;26502;51.886;15.604;2024-01-27T10:10:07;101939.47;;;5.62;68.38
40794;BME280;26502;51.886;15.604;2024-01-27T10:15:33;101935.98;;;5.67;68.35
40794;BME280;26502;51.886;15.604;2024-01-27T10:21:00;101938.36;;;5.79;68.24
40794;BME280;26502;51.886;15.604;2024-01-27T10:26:26;101948.30;;;5.87;68.29
40794;BME280;26502;51.886;15.604;2024-01-27T10:31:56;101946.71;;;5.89;68.23
40794;BME280;26502;51.886;15.604;2024-01-27T10:37:32;101953.29;;;5.94;67.71
40794;BME280;26502;51.886;15.604;2024-01-27T10:43:06;101965.75;;;6.08;67.90
40794;BME280;26502;51.886;15.604;2024-01-27T10:48:32;101964.54;;;6.11;67.25
40794;BME280;26502;51.886;15.604;2024-01-27T10:54:03;101972.95;;;6.04;67.32
40794;BME280;26502;51.886;15.604;2024-01-27T10:59:30;101970.66;;;6.01;67.14
40794;BME280;26502;51.886;15.604;2024-01-27T11:04:56;101981.57;;;6.24;67.41
40794;BME280;26502;51.886;15.604;2024-01-27T11:10:23;101985.70;;;6.39;67.17
40794;BME280;26502;51.886;15.604;2024-01-27T11:15:53;101998.38;;;6.32;67.20
40794;BME280;26502;51.886;15.604;2024-01-27T11:21:19;102005.73;;;6.26;67.17
40794;BME280;26502;51.886;15.604;2024-01-27T11:26:46;102005.81;;;6.36;66.63
40794;BME280;26502;51.886;15.604;2024-01-27T11:32:12;102011.55;;;6.54;66.83
40794;BME280;26502;51.886;15.604;2024-01-27T11:37:38;102022.02;;;6.60;66.53
40794;BME280;26502;51.886;15.604;2024-01-27T11:43:05;102029.27;;;6.68;66.19
40794;BME280;26502;51.886;15.604;2024-01-27T11:48:31;102025.29;;;6.78;66.13
40794;BME280;26502;51.886;15.604;2024-01-27T11:54:00;102044.05;;;6.89;66.20
40794;BME280;26502;51.886;15.604;2024-01-27T11:59:26;102046.68;;;6.86;65.95
40794;BME280;26502;51.886;15.604;2024-01-27T12:04:52;102058.35;;;6.90;66.11
40794;BME280;26502;51.886;15.604;2024-01-27T12:10:20;102066.29;;;6.87;66.04
40794;BME280;26502;51.886;15.604;2024-01-27T12:15:46;102080.56;;;6.81;65.82
40794;BME280;26502;51.886;15.604;2024-01-27T12:21:12;102082.33;;;6.81;65.25
40794;BME280;26502;51.886;15.604;2024-01-27T12:26:38;102092.03;;;6.80;65.51
40794;BME280;26502;51.886;15.604;2024-01-27T12:32:06;102092.40;;;6.84;65.33
40794;BME280;26502;51.886;15.604;2024-01-27T12:37:33;102102.81;;;6.80;65.59
40794;BME280;26502;51.886;15.604;2024-01-27T12:42:59;102108.81;;;6.81;65.44
40794;BME280;26502;51.886;15.604;2024-01-27T12:48:26;102115.30;;;6.75;65.49
40794;BME280;26502;51.886;15.604;2024-01-27T12:53:52;102115.45;;;6.69;65.73
40794;BME280;26502;51.886;15.604;2024-01-27T12:59:18;102115.60;;;6.66;65.71
40794;BME280;26502;51.886;15.604;2024-01-27T13:04:43;102124.61;;;6.66;65.79
40794;BME280;26502;51.886;15.604;2024-01-27T13:10:11;102129.04;;;6.69;65.83
40794;BME280;26502;51.886;15.604;2024-01-27T13:15:36;102131.81;;;6.89;65.33
40794;BME280;26502;51.886;15.604;2024-01-27T13:21:03;102143.27;;;6.86;65.30
40794;BME280;26502;51.886;15.604;2024-01-27T13:26:30;102142.17;;;6.78;65.02
40794;BME280;26502;51.886;15.604;2024-01-27T13:31:57;102145.80;;;6.69;65.23
40794;BME280;26502;51.886;15.604;2024-01-27T13:37:27;102149.55;;;6.71;65.61
40794;BME280;26502;51.886;15.604;2024-01-27T13:42:58;102160.87;;;6.74;65.43
40794;BME280;26502;51.886;15.604;2024-01-27T13:48:24;102163.14;;;6.71;65.36
40794;BME280;26502;51.886;15.604;2024-01-27T13:53:50;102168.93;;;6.68;65.52
40794;BME280;26502;51.886;15.604;2024-01-27T13:59:17;102165.21;;;6.67;65.63
40794;BME280;26502;51.886;15.604;2024-01-27T14:04:43;102171.72;;;6.63;65.65
40794;BME280;26502;51.886;15.604;2024-01-27T14:10:10;102182.10;;;6.59;65.77
40794;BME280;26502;51.886;15.604;2024-01-27T14:15:36;102186.66;;;6.55;65.75
40794;BME280;26502;51.886;15.604;2024-01-27T14:21:03;102204.44;;;6.50;65.79
40794;BME280;26502;51.886;15.604;2024-01-27T14:26:29;102202.29;;;6.45;65.89
40794;BME280;26502;51.886;15.604;2024-01-27T14:31:55;102207.88;;;6.39;66.16
40794;BME280;26502;51.886;15.604;2024-01-27T14:37:21;102216.31;;;6.37;66.34
40794;BME280;26502;51.886;15.604;2024-01-27T14:42:47;102220.16;;;6.32;66.47
40794;BME280;26502;51.886;15.604;2024-01-27T14:48:16;102224.52;;;6.28;66.69
40794;BME280;26502;51.886;15.604;2024-01-27T14:53:44;102226.76;;;6.21;66.95
40794;BME280;26502;51.886;15.604;2024-01-27T14:59:10;102230.23;;;6.16;67.13
40794;BME280;26502;51.886;15.604;2024-01-27T15:04:36;102242.31;;;6.09;67.30
40794;BME280;26502;51.886;15.604;2024-01-27T15:10:03;102242.08;;;6.03;67.55
40794;BME280;26502;51.886;15.604;2024-01-27T15:15:29;102244.83;;;5.98;67.75
40794;BME280;26502;51.886;15.604;2024-01-27T15:20:55;102250.95;;;5.95;67.82
40794;BME280;26502;51.886;15.604;2024-01-27T15:26:21;102256.21;;;5.93;67.95
40794;BME280;26502;51.886;15.604;2024-01-27T15:31:47;102264.31;;;5.92;68.07
40794;BME280;26502;51.886;15.604;2024-01-27T15:37:13;102274.67;;;5.89;68.07
40794;BME280;26502;51.886;15.604;2024-01-27T15:42:39;102282.36;;;5.83;68.23
40794;BME280;26502;51.886;15.604;2024-01-27T15:48:06;102288.38;;;5.84;68.38
40794;BME280;26502;51.886;15.604;2024-01-27T15:53:34;102300.30;;;5.80;68.35
40794;BME280;26502;51.886;15.604;2024-01-27T15:59:00;102306.59;;;5.75;68.43
40794;BME280;26502;51.886;15.604;2024-01-27T16:04:26;102318.00;;;5.73;68.55
40794;BME280;26502;51.886;15.604;2024-01-27T16:09:57;102322.95;;;5.72;68.54
40794;BME280;26502;51.886;15.604;2024-01-27T16:15:31;102339.87;;;5.71;68.66
40794;BME280;26502;51.886;15.604;2024-01-27T16:20:58;102338.60;;;5.70;68.59
40794;BME280;26502;51.886;15.604;2024-01-27T16:26:24;102339.59;;;5.65;68.77
40794;BME280;26502;51.886;15.604;2024-01-27T16:31:51;102344.35;;;5.64;68.80
40794;BME280;26502;51.886;15.604;2024-01-27T16:37:17;102352.56;;;5.60;68.85
40794;BME280;26502;51.886;15.604;2024-01-27T16:42:45;102358.49;;;5.56;69.03
40794;BME280;26502;51.886;15.604;2024-01-27T16:48:11;102372.58;;;5.55;69.09
40794;BME280;26502;51.886;15.604;2024-01-27T16:53:38;102378.71;;;5.54;69.23
40794;BME280;26502;51.886;15.604;2024-01-27T16:59:04;102384.70;;;5.53;69.36
40794;BME280;26502;51.886;15.604;2024-01-27T17:04:32;102389.21;;;5.48;69.51
40794;BME280;26502;51.886;15.604;2024-01-27T17:09:58;102399.90;;;5.44;69.61
40794;BME280;26502;51.886;15.604;2024-01-27T17:15:24;102406.00;;;5.40;69.81
40794;BME280;26502;51.886;15.604;2024-01-27T17:20:51;102413.30;;;5.35;69.98
40794;BME280;26502;51.886;15.604;2024-01-27T17:26:17;102422.61;;;5.32;70.17
40794;BME280;26502;51.886;15.604;2024-01-27T17:31:43;102431.91;;;5.31;70.25
40794;BME280;26502;51.886;15.604;2024-01-27T17:37:09;102431.52;;;5.28;70.41
40794;BME280;26502;51.886;15.604;2024-01-27T17:42:35;102436.23;;;5.26;70.51
40794;BME280;26502;51.886;15.604;2024-01-27T17:48:01;102444.31;;;5.25;70.65
40794;BME280;26502;51.886;15.604;2024-01-27T17:53:27;102453.11;;;5.25;70.70
40794;BME280;26502;51.886;15.604;2024-01-27T17:58:53;102453.42;;;5.22;70.79
40794;BME280;26502;51.886;15.604;2024-01-27T18:04:19;102457.98;;;5.21;70.93
40794;BME280;26502;51.886;15.604;2024-01-27T18:09:45;102459.86;;;5.18;70.96
40794;BME280;26502;51.886;15.604;2024-01-27T18:15:11;102465.55;;;5.11;71.08
40794;BME280;26502;51.886;15.604;2024-01-27T18:20:39;102465.30;;;5.07;71.17
40794;BME280;26502;51.886;15.604;2024-01-27T18:26:07;102474.81;;;5.07;71.26
40794;BME280;26502;51.886;15.604;2024-01-27T18:31:34;102477.11;;;5.07;71.42
40794;BME280;26502;51.886;15.604;2024-01-27T18:36:59;102485.96;;;5.10;71.52
40794;BME280;26502;51.886;15.604;2024-01-27T18:42:28;102496.38;;;5.11;71.56
40794;BME280;26502;51.886;15.604;2024-01-27T18:47:54;102497.99;;;5.13;71.63
40794;BME280;26502;51.886;15.604;2024-01-27T18:53:24;102495.59;;;5.17;71.58
40794;BME280;26502;51.886;15.604;2024-01-27T18:58:49;102489.50;;;5.21;71.62
40794;BME280;26502;51.886;15.604;2024-01-27T19:04:16;102495.53;;;5.23;71.59
40794;BME280;26502;51.886;15.604;2024-01-27T19:09:42;102496.77;;;5.23;71.63
40794;BME280;26502;51.886;15.604;2024-01-27T19:15:08;102497.16;;;5.25;71.73
40794;BME280;26502;51.886;15.604;2024-01-27T19:20:35;102507.01;;;5.24;71.76
40794;BME280;26502;51.886;15.604;2024-01-27T19:26:01;102512.42;;;5.22;71.75
40794;BME280;26502;51.886;15.604;2024-01-27T19:31:27;102516.05;;;5.18;71.97
40794;BME280;26502;51.886;15.604;2024-01-27T19:36:55;102521.50;;;5.18;71.97
40794;BME280;26502;51.886;15.604;2024-01-27T19:42:21;102526.75;;;5.16;72.04
40794;BME280;26502;51.886;15.604;2024-01-27T19:47:47;102528.67;;;5.15;72.08
40794;BME280;26502;51.886;15.604;2024-01-27T19:53:14;102535.17;;;5.14;72.12
40794;BME280;26502;51.886;15.604;2024-01-27T19:58:40;102540.42;;;5.12;72.30
40794;BME280;26502;51.886;15.604;2024-01-27T20:04:06;102542.91;;;5.13;72.32
40794;BME280;26502;51.886;15.604;2024-01-27T20:09:32;102548.35;;;5.12;72.19
40794;BME280;26502;51.886;15.604;2024-01-27T20:14:58;102543.44;;;5.04;72.46
40794;BME280;26502;51.886;15.604;2024-01-27T20:20:24;102551.69;;;4.95;72.82
40794;BME280;26502;51.886;15.604;2024-01-27T20:25:51;102567.80;;;4.91;72.96
40794;BME280;26502;51.886;15.604;2024-01-27T20:31:18;102572.28;;;4.87;73.01
40794;BME280;26502;51.886;15.604;2024-01-27T20:36:44;102577.84;;;4.74;73.02
40794;BME280;26502;51.886;15.604;2024-01-27T20:42:11;102582.67;;;4.62;73.18
40794;BME280;26502;51.886;15.604;2024-01-27T20:47:38;102590.66;;;4.50;73.46
40794;BME280;26502;51.886;15.604;2024-01-27T20:53:06;102600.01;;;4.43;73.51
40794;BME280;26502;51.886;15.604;2024-01-27T20:58:32;102602.58;;;4.40;73.50
40794;BME280;26502;51.886;15.604;2024-01-27T21:04:01;102606.31;;;4.35;73.57
40794;BME280;26502;51.886;15.604;2024-01-27T21:09:27;102603.95;;;4.31;73.63
40794;BME280;26502;51.886;15.604;2024-01-27T21:14:53;102600.23;;;4.23;73.60
40794;BME280;26502;51.886;15.604;2024-01-27T21:20:20;102607.81;;;4.17;73.58
40794;BME280;26502;51.886;15.604;2024-01-27T21:25:46;102618.07;;;4.05;73.59
40794;BME280;26502;51.886;15.604;2024-01-27T21:31:12;102619.71;;;3.94;73.70
40794;BME280;26502;51.886;15.604;2024-01-27T21:36:38;102620.15;;;3.84;73.61
40794;BME280;26502;51.886;15.604;2024-01-27T21:42:07;102618.05;;;3.64;73.76
40794;BME280;26502;51.886;15.604;2024-01-27T21:47:35;102619.03;;;3.49;74.00
40794;BME280;26502;51.886;15.604;2024-01-27T21:53:01;102622.60;;;3.38;74.07
40794;BME280;26502;51.886;15.604;2024-01-27T21:58:28;102620.55;;;3.28;74.25
40794;BME280;26502;51.886;15.604;2024-01-27T22:03:54;102624.48;;;3.12;74.38
40794;BME280;26502;51.886;15.604;2024-01-27T22:09:22;102628.01;;;3.01;74.44
40794;BME280;26502;51.886;15.604;2024-01-27T22:14:48;102640.79;;;2.88;74.56
40794;BME280;26502;51.886;15.604;2024-01-27T22:20:14;102641.30;;;2.82;74.79
40794;BME280;26502;51.886;15.604;2024-01-27T22:25:40;102646.30;;;2.73;74.62
40794;BME280;26502;51.886;15.604;2024-01-27T22:31:06;102655.94;;;2.62;74.82
40794;BME280;26502;51.886;15.604;2024-01-27T22:36:32;102666.17;;;2.58;75.06
40794;BME280;26502;51.886;15.604;2024-01-27T22:41:59;102664.29;;;2.54;75.21
40794;BME280;26502;51.886;15.604;2024-01-27T22:47:25;102668.27;;;2.53;75.38
40794;BME280;26502;51.886;15.604;2024-01-27T22:52:53;102675.29;;;2.53;75.59
40794;BME280;26502;51.886;15.604;2024-01-27T22:58:19;102677.50;;;2.51;75.52
40794;BME280;26502;51.886;15.604;2024-01-27T23:03:47;102677.83;;;2.39;75.51
40794;BME280;26502;51.886;15.604;2024-01-27T23:09:16;102680.02;;;2.27;75.89
40794;BME280;26502;51.886;15.604;2024-01-27T23:14:43;102674.04;;;2.20;76.04
40794;BME280;26502;51.886;15.604;2024-01-27T23:20:10;102679.46;;;2.10;76.42
40794;BME280;26502;51.886;15.604;2024-01-27T23:25:37;102675.77;;;2.04;76.44
40794;BME280;26502;51.886;15.604;2024-01-27T23:31:04;102671.15;;;2.02;76.72
40794;BME280;26502;51.886;15.604;2024-01-27T23:36:31;102669.27;;;1.99;76.83
40794;BME280;26502;51.886;15.604;2024-01-27T23:41:58;102670.16;;;1.94;76.89
40794;BME280;26502;51.886;15.604;2024-01-27T23:47:24;102666.94;;;1.87;77.06
40794;BME280;26502;51.886;15.604;2024-01-27T23:52:50;102660.36;;;1.84;77.20
40794;BME280;26502;51.886;15.604;2024-01-27T23:58:17;102665.86;;;1.81;77.31
